Time;durP1;ratioP1;P1;durP2;ratioP2;P2;SDS_P1;SDS_P2;PMS_P1;PMS_P2;Temp;Humidity;BMP_temperature;BMP_pressure;BME280_temperature;BME280_humidity;BME280_pressure;Samples;Min_cycle;Max_cycle;Signal;HPM_P1;HPM_P2
2022/05/19 00:02:01;;;;;;;4.53;4.22;;;18.90;99.90;;;19.30;86.06;101596.09;4860118;29;20125;-60
2022/05/19 00:04:31;;;;;;;3.90;3.70;;;18.90;99.90;;;19.26;85.96;101587.22;4861212;29;20136;-60
2022/05/19 00:07:01;;;;;;;5.45;5.13;;;18.90;99.90;;;19.35;85.49;101588.81;4860756;29;20396;-60
2022/05/19 00:09:29;;;;;;;4.82;4.43;;;19.00;99.90;;;19.36;85.44;101585.19;4860790;29;20045;-59
2022/05/19 00:12:01;;;;;;;3.38;3.28;;;19.00;99.90;;;19.37;85.69;101593.22;4860853;29;20049;-59
2022/05/19 00:14:30;;;;;;;6.47;5.88;;;19.00;99.90;;;19.35;86.00;101596.84;4860937;29;20088;-59
2022/05/19 00:16:58;;;;;;;6.32;5.10;;;19.00;99.90;;;19.43;85.81;101589.47;4860622;29;20049;-59
2022/05/19 00:19:27;;;;;;;4.72;4.20;;;19.00;99.90;;;19.53;85.50;101590.97;4861080;29;20069;-59
2022/05/19 00:21:56;;;;;;;6.00;5.60;;;19.10;99.90;;;19.45;85.64;101574.22;4860464;29;20052;-61
2022/05/19 00:24:29;;;;;;;4.25;3.90;;;19.10;99.90;;;19.52;85.52;101573.97;4860752;29;20046;-59
2022/05/19 00:26:58;;;;;;;4.10;3.60;;;19.20;99.90;;;19.43;85.87;101562.63;4860395;29;20154;-60
2022/05/19 00:29:28;;;;;;;3.75;3.50;;;19.10;99.90;;;19.54;85.88;101568.56;4874776;29;20049;-60
2022/05/19 00:31:56;;;;;;;16.60;5.55;;;19.20;99.90;;;19.57;85.59;101563.97;4860322;29;20223;-60
2022/05/19 00:34:25;;;;;;;5.72;5.18;;;19.20;99.90;;;19.58;85.91;101556.81;4860702;29;20049;-60
2022/05/19 00:36:58;;;;;;;5.47;4.80;;;19.20;99.90;;;19.55;85.94;101562.28;4861115;29;20124;-60
2022/05/19 00:39:27;;;;;;;4.07;3.88;;;19.20;99.90;;;19.61;86.07;101554.91;4861434;29;20049;-61
2022/05/19 00:44:40;;;;;;;3.85;3.67;;;19.30;99.90;;;19.72;85.54;101550.06;4861018;29;20397;-61
2022/05/19 00:47:19;;;;;;;5.20;4.75;;;19.40;99.90;;;19.72;85.78;101554.59;4861484;29;20061;-61
2022/05/19 00:49:49;;;;;;;6.75;6.05;;;19.30;99.90;;;19.52;86.72;101549.81;4861215;29;20121;-60
2022/05/19 00:52:23;;;;;;;;;;;19.20;99.90;;;19.58;86.88;101538.00;4861817;29;20045;-61
2022/05/19 00:55:01;;;;;;;4.15;3.75;;;19.20;99.90;;;19.69;86.56;101538.56;4861392;29;19931;-61
2022/05/19 00:57:35;;;;;;;3.28;3.17;;;19.30;99.90;;;19.77;86.35;101539.19;4860966;29;20101;-61
2022/05/19 01:00:10;;;;;;;3.00;2.90;;;19.50;99.90;;;19.83;86.11;101543.50;4861074;29;20046;-60
2022/05/19 01:02:42;;;;;;;4.38;4.07;;;19.50;99.90;;;19.80;86.18;101542.66;4861283;29;20452;-63
2022/05/19 01:05:14;;;;;;;3.20;3.10;;;19.50;99.90;;;19.87;86.00;101539.78;4860995;29;20098;-63
2022/05/19 01:07:50;;;;;;;6.50;5.90;;;19.50;99.90;;;19.86;86.13;101530.00;4860868;29;20054;-63
2022/05/19 01:10:22;;;;;;;4.75;4.45;;;19.50;99.90;;;19.80;86.55;101526.53;4861265;29;20045;-63
2022/05/19 01:12:54;;;;;;;5.80;5.40;;;19.50;99.90;;;19.81;86.92;101511.31;4859798;29;20095;-63
2022/05/19 01:15:23;;;;;;;7.90;6.15;;;19.50;99.90;;;19.82;86.99;101510.41;4861136;29;20061;-63
2022/05/19 01:17:51;;;;;;;4.78;4.47;;;19.50;99.90;;;19.81;87.31;101503.28;4861118;29;20496;-63
2022/05/19 01:20:24;;;;;;;4.35;3.92;;;19.50;99.90;;;19.89;87.06;101521.81;4860750;29;20504;-63
2022/05/19 01:23:01;;;;;;;3.88;3.67;;;19.50;99.90;;;19.90;87.37;101505.66;4860826;29;20049;-63
2022/05/19 01:25:41;;;;;;;5.90;5.35;;;19.50;99.90;;;19.78;87.58;101511.44;4861082;29;20080;-65
2022/05/19 01:28:12;;;;;;;5.90;5.40;;;19.50;99.90;;;19.66;88.43;101509.13;4860992;29;20076;-64
2022/05/19 01:30:41;;;;;;;7.53;6.68;;;19.30;99.90;;;19.66;88.84;101506.44;4861000;29;20453;-64
2022/05/19 01:33:10;;;;;;;3.83;3.60;;;19.30;99.90;;;19.67;89.45;101508.19;4874865;29;20056;-64
2022/05/19 01:35:39;;;;;;;4.68;4.38;;;19.20;99.90;;;19.71;89.76;101504.47;4861124;29;20451;-63
2022/05/19 01:38:15;;;;;;;5.68;5.28;;;19.30;99.90;;;19.69;89.16;101500.97;4861396;29;20057;-63
2022/05/19 01:41:07;;;;;;;4.38;4.15;;;19.30;99.90;;;19.76;89.19;101498.03;4863283;29;20050;-63
2022/05/19 01:43:53;;;;;;;3.58;3.38;;;19.40;99.90;;;19.83;89.05;101500.53;4864515;29;20077;-64
2022/05/19 01:46:31;;;;;;;4.50;4.20;;;19.40;99.90;;;19.79;89.15;101502.44;4864607;29;20073;-63
2022/05/19 01:49:14;;;;;;;3.15;3.05;;;19.40;99.90;;;19.94;88.59;101488.50;4864888;29;20049;-64
2022/05/19 01:51:52;;;;;;;3.67;3.47;;;19.50;99.90;;;20.09;87.88;101495.19;4864382;29;20045;-63
2022/05/19 01:54:30;;;;;;;5.45;4.78;;;19.70;99.90;;;20.11;87.69;101507.63;4864151;29;20568;-63
2022/05/19 01:57:05;;;;;;;5.57;4.60;;;19.80;99.90;;;20.20;87.60;101531.56;4864462;29;20392;-63
2022/05/19 01:59:44;;;;;;;2.67;2.58;;;19.80;99.90;;;20.37;86.69;101515.72;4864128;29;20101;-63
2022/05/19 02:02:20;;;;;;;3.05;2.95;;;20.10;99.90;;;20.67;86.03;101541.53;4864087;29;20468;-63
2022/05/19 02:05:01;;;;;;;3.10;3.00;;;20.30;99.90;;;20.66;85.90;101547.88;4863212;29;20097;-63
2022/05/19 02:07:36;;;;;;;2.70;2.60;;;20.30;99.90;;;20.92;85.20;101557.69;4862749;29;20098;-63
2022/05/19 02:10:10;;;;;;;2.42;2.33;;;20.50;99.90;;;20.83;84.30;101511.44;4864275;29;20049;-63
2022/05/19 02:12:38;;;;;;;2.85;2.75;;;20.70;99.90;;;21.10;84.08;101556.19;4863893;29;20086;-64
2022/05/19 02:15:12;;;;;;;4.38;4.07;;;20.90;99.90;;;21.34;83.94;101549.88;4864032;29;20420;-63
2022/05/19 02:17:43;;;;;;;4.95;4.50;;;21.00;99.90;;;21.14;84.49;101556.00;4863858;29;20133;-63
2022/05/19 02:20:15;;;;;;;6.10;5.53;;;20.90;99.90;;;20.56;87.14;101526.72;4863877;29;20133;-63
2022/05/19 02:22:45;;;;;;;4.28;3.97;;;20.50;99.90;;;20.57;89.95;101572.38;4863745;29;20552;-64
2022/05/19 02:25:19;;;;;;;8.43;6.75;;;20.20;99.90;;;20.22;91.00;101550.31;4863723;29;20575;-64
2022/05/19 02:27:53;;;;;;;10.35;8.15;;;20.10;99.90;;;20.24;93.07;101586.94;4863713;29;20504;-63
2022/05/19 02:30:27;;;;;;;11.35;7.93;;;19.90;99.90;;;20.21;94.17;101575.44;4863615;29;20428;-63
2022/05/19 02:32:57;;;;;;;7.30;6.55;;;19.80;99.90;;;20.23;95.03;101568.16;4863591;29;20045;-64
2022/05/19 02:35:26;;;;;;;9.60;4.22;;;19.80;99.90;;;20.12;95.96;101581.94;4863415;29;20497;-63
2022/05/19 02:37:56;;;;;;;5.10;4.80;;;19.80;99.90;;;20.08;96.39;101595.50;4862420;29;20069;-63
2022/05/19 02:40:29;;;;;;;20.52;11.55;;;19.80;99.90;;;19.94;97.27;101582.50;4862394;29;20073;-64
2022/05/19 02:42:57;;;;;;;17.65;9.90;;;19.60;99.90;;;19.96;97.65;101586.03;4863402;29;20046;-63
2022/05/19 02:45:30;;;;;;;11.05;7.85;;;19.60;99.90;;;19.76;98.04;101553.56;4863326;29;20060;-63
2022/05/19 02:47:59;;;;;;;5.63;5.03;;;19.50;99.90;;;19.87;98.17;101561.25;4862353;29;20479;-63
2022/05/19 02:50:28;;;;;;;9.60;8.77;;;19.50;99.90;;;19.89;98.04;101563.00;4863061;29;20479;-63
2022/05/19 02:52:58;;;;;;;12.68;4.88;;;19.50;99.90;;;19.92;98.17;101572.75;4863432;29;20441;-63
2022/05/19 02:55:26;;;;;;;5.57;5.17;;;19.50;99.90;;;20.06;97.70;101563.31;4863283;29;20114;-64
2022/05/19 02:57:58;;;;;;;11.98;8.40;;;19.70;99.90;;;19.91;97.43;101544.13;4863425;29;20049;-63
2022/05/19 03:00:28;;;;;;;5.53;5.13;;;19.70;99.90;;;19.84;98.05;101556.84;4863285;29;20057;-63
2022/05/19 03:02:58;;;;;;;22.75;6.07;;;19.70;99.90;;;20.02;98.07;101587.63;4863114;29;20046;-64
2022/05/19 03:05:30;;;;;;;7.00;6.40;;;19.70;99.90;;;20.05;97.88;101574.13;4863287;29;20041;-63
2022/05/19 03:08:06;;;;;;;9.60;7.57;;;19.70;99.90;;;20.01;98.37;101550.97;4863057;29;20077;-63
2022/05/19 03:10:35;;;;;;;7.90;7.20;;;19.70;99.90;;;20.00;98.93;101550.09;4861907;29;20109;-63
2022/05/19 03:13:05;;;;;;;13.25;6.80;;;19.70;99.90;;;20.01;99.48;101540.22;4863092;29;20057;-63
2022/05/19 03:15:35;;;;;;;7.30;6.57;;;19.60;99.90;;;20.05;99.27;101548.16;4862737;29;20045;-63
2022/05/19 03:18:05;;;;;;;6.85;6.15;;;19.70;99.90;;;19.98;99.98;101532.25;4863061;29;20065;-63
2022/05/19 03:20:33;;;;;;;7.68;5.72;;;19.70;99.90;;;19.90;99.52;101523.59;4862688;29;20096;-64
2022/05/19 03:23:02;;;;;;;7.05;6.38;;;19.60;99.90;;;19.95;99.77;101521.63;4862647;29;20065;-63
2022/05/19 03:25:30;;;;;;;5.47;4.88;;;19.60;99.90;;;20.02;99.29;101564.34;4862598;29;20042;-63
2022/05/19 03:27:59;;;;;;;5.93;5.53;;;19.70;99.90;;;20.19;99.05;101693.69;4862571;29;20466;-64
2022/05/19 03:30:27;;;;;;;3.22;3.13;;;19.80;99.90;;;20.37;99.36;101730.75;4862507;29;20464;-63
2022/05/19 03:32:57;;;;;;;3.95;3.75;;;20.00;99.90;;;20.40;99.97;101703.75;4862779;29;20077;-64
2022/05/19 03:35:25;;;;;;;3.20;3.10;;;20.00;99.90;;;20.39;96.37;101731.59;4862722;29;20102;-64
2022/05/19 03:38:02;;;;;;;4.20;3.80;;;20.10;99.90;;;20.63;95.89;101735.31;4862425;29;20134;-65
2022/05/19 03:40:31;;;;;;;2.92;2.83;;;20.20;99.90;;;20.84;95.04;101717.59;4862407;29;20037;-64
2022/05/19 03:42:59;;;;;;;3.42;3.28;;;20.40;99.90;;;20.82;94.59;101714.97;4862745;29;20129;-65
2022/05/19 03:45:28;;;;;;;3.67;3.47;;;20.40;99.90;;;20.42;94.76;101625.78;4861497;29;20057;-64
2022/05/19 03:47:58;;;;;;;18.17;16.50;;;20.50;99.90;;;21.01;94.35;101696.41;4862122;29;20583;-65
2022/05/19 03:50:27;;;;;;;2.85;2.75;;;20.60;99.90;;;21.12;94.04;101686.16;4862460;29;20077;-64
2022/05/19 03:52:57;;;;;;;3.72;3.53;;;20.70;99.90;;;21.24;93.53;101696.50;4862088;29;20081;-64
2022/05/19 03:55:26;;;;;;;2.83;2.72;;;20.80;99.90;;;21.27;93.01;101662.25;4862304;29;20045;-64
2022/05/19 03:57:54;;;;;;;2.83;2.72;;;20.90;99.90;;;21.45;92.09;101693.03;4862039;29;20488;-64
2022/05/19 04:00:24;;;;;;;2.80;2.70;;;21.00;99.90;;;21.38;91.70;101672.66;4861915;29;20448;-64
2022/05/19 04:02:53;;;;;;;3.05;2.95;;;21.10;99.90;;;21.53;91.91;101678.38;4860967;29;20057;-64
2022/05/19 04:05:29;;;;;;;3.08;2.90;;;21.10;99.90;;;21.58;91.66;101674.63;4861954;29;20050;-63
2022/05/19 04:07:57;;;;;;;;;;;21.20;99.90;;;21.45;91.95;101669.69;4862293;29;20060;-67
2022/05/19 04:10:29;;;;;;;3.15;2.95;;;21.10;99.90;;;21.64;90.53;101663.63;4861669;29;20306;-64
2022/05/19 04:12:57;;;;;;;3.05;2.95;;;21.20;99.90;;;21.54;87.87;101668.50;4862138;29;20124;-67
2022/05/19 04:15:27;;;;;;;2.85;2.75;;;21.20;99.90;;;21.56;87.36;101677.38;4862134;29;20461;-66
2022/05/19 04:17:55;;;;;;;3.00;2.90;;;21.20;99.90;;;21.45;86.59;101658.91;4861682;29;20114;-66
2022/05/19 04:20:26;;;;;;;2.72;2.63;;;21.10;99.90;;;21.48;86.29;101658.81;4861955;29;20486;-66
2022/05/19 04:22:55;;;;;;;2.92;2.83;;;21.20;99.90;;;21.40;85.31;101660.03;4861698;29;20065;-65
2022/05/19 04:25:24;;;;;;;3.13;3.03;;;21.10;99.90;;;21.42;84.88;101659.03;4861849;29;20079;-65
2022/05/19 04:27:53;;;;;;;3.00;2.90;;;21.10;99.90;;;21.52;85.34;101652.38;4861512;29;20290;-65
2022/05/19 04:30:22;;;;;;;2.60;2.50;;;21.10;99.90;;;21.54;85.41;101658.56;4861459;29;20052;-64
2022/05/19 04:32:54;;;;;;;2.67;2.58;;;21.20;99.90;;;21.54;85.19;101665.78;4861981;29;20461;-65
2022/05/19 04:35:23;;;;;;;2.80;2.70;;;21.20;99.90;;;21.52;84.96;101659.59;4861572;29;20045;-65
2022/05/19 04:37:51;;;;;;;2.70;2.60;;;21.20;99.90;;;21.52;84.81;101659.59;4861566;29;20098;-64
2022/05/19 04:40:21;;;;;;;2.53;2.42;;;21.10;99.90;;;21.55;84.74;101660.34;4861588;29;20038;-65
2022/05/19 04:42:50;;;;;;;2.80;2.70;;;21.20;99.90;;;21.49;84.43;101657.00;4861326;29;20037;-65
2022/05/19 04:45:19;;;;;;;2.55;2.45;;;21.10;99.90;;;21.45;84.61;101658.03;4860270;29;20323;-65
2022/05/19 04:47:47;;;;;;;2.58;2.47;;;21.10;99.90;;;21.42;85.01;101655.47;4861474;29;20124;-65
2022/05/19 04:50:16;;;;;;;3.88;3.65;;;21.00;99.90;;;20.67;88.35;101632.97;4861178;29;20080;-64
2022/05/19 04:52:45;;;;;;;2.60;2.50;;;20.50;99.90;;;20.85;89.65;101641.38;4861391;29;20061;-64
2022/05/19 04:55:14;;;;;;;2.80;2.70;;;20.30;99.90;;;21.08;89.18;101631.56;4861017;29;20317;-64
2022/05/19 04:57:46;;;;;;;3.85;3.65;;;20.60;99.90;;;20.72;85.86;101610.41;4861075;29;20068;-64
2022/05/19 05:00:16;;;;;;;2.47;2.38;;;20.40;99.90;;;20.37;86.57;101592.78;4861027;29;20052;-65
2022/05/19 05:02:45;;;;;;;2.60;2.50;;;20.10;99.90;;;20.38;86.99;101603.47;4861348;29;20128;-65
2022/05/19 05:05:14;;;;;;;3.17;3.08;;;20.00;99.90;;;20.40;87.52;101590.88;4860951;29;20042;-64
2022/05/19 05:07:42;;;;;;;3.67;3.47;;;20.00;99.90;;;20.23;86.90;101562.78;4860832;29;20132;-64
2022/05/19 05:10:11;;;;;;;2.65;2.55;;;20.20;99.90;;;20.53;86.22;101564.47;4860900;29;20112;-65
2022/05/19 05:12:39;;;;;;;2.60;2.50;;;20.20;99.90;;;20.26;86.31;101482.97;4859936;29;20069;-65
2022/05/19 05:15:10;;;;;;;2.95;2.85;;;20.30;99.90;;;20.79;86.12;101545.59;4861212;29;20046;-64
2022/05/19 05:17:39;;;;;;;2.58;2.47;;;20.40;99.90;;;20.91;86.14;101534.41;4860847;29;20046;-64
2022/05/19 05:20:12;;;;;;;2.30;2.20;;;20.50;99.90;;;20.89;86.16;101508.50;4861347;29;20046;-64
2022/05/19 05:22:41;;;;;;;2.72;2.63;;;20.60;99.90;;;21.00;85.80;101531.38;4861047;29;20076;-64
2022/05/19 05:25:14;;;;;;;2.50;2.40;;;20.70;99.90;;;20.75;85.46;101513.50;4860713;29;20113;-64
2022/05/19 05:27:42;;;;;;;2.85;2.75;;;20.60;99.90;;;20.53;87.13;101532.22;4860766;29;20045;-64
2022/05/19 05:30:14;;;;;;;5.38;4.88;;;20.30;99.90;;;19.96;88.55;101532.31;4861004;29;20042;-64
2022/05/19 05:32:42;;;;;;;3.58;3.38;;;19.80;99.90;;;19.79;90.94;101538.22;4861123;29;20068;-64
2022/05/19 05:35:12;;;;;;;3.10;3.00;;;19.40;99.90;;;19.78;91.36;101525.72;4860322;29;20049;-64
2022/05/19 05:37:40;;;;;;;12.45;4.88;;;19.30;99.90;;;19.19;92.40;101474.78;4860613;29;20120;-64
2022/05/19 05:40:11;;;;;;;5.45;5.05;;;19.20;99.90;;;19.35;94.96;101529.78;4860820;29;20113;-64
2022/05/19 05:42:40;;;;;;;3.40;3.30;;;19.00;99.90;;;19.63;94.83;101538.75;4860870;29;20065;-64
2022/05/19 05:45:12;;;;;;;2.90;2.80;;;19.10;99.90;;;19.90;93.98;101531.66;4860793;29;20101;-64
2022/05/19 05:47:40;;;;;;;3.05;2.95;;;19.40;99.90;;;20.07;92.44;101532.88;4860586;29;20053;-64
2022/05/19 05:50:13;;;;;;;3.00;2.90;;;19.60;99.90;;;20.25;91.92;101529.56;4860531;29;20045;-64
2022/05/19 05:52:41;;;;;;;3.08;2.97;;;19.80;99.90;;;20.41;91.39;101538.00;4860394;29;20050;-64
2022/05/19 05:55:11;;;;;;;2.90;2.80;;;20.00;99.90;;;20.61;90.85;101546.28;4860228;29;20572;-64
2022/05/19 05:57:39;;;;;;;2.58;2.47;;;20.20;99.90;;;20.67;89.77;101530.78;4860434;29;20075;-65
2022/05/19 06:00:12;;;;;;;3.75;3.55;;;20.30;99.90;;;20.76;89.89;101526.00;4860948;29;20049;-64
2022/05/19 06:02:41;;;;;;;3.15;3.05;;;20.40;99.90;;;20.79;89.83;101524.09;4860591;29;20057;-64
2022/05/19 06:05:11;;;;;;;2.65;2.55;;;20.40;99.90;;;21.03;89.31;101520.56;4874282;29;20049;-64
2022/05/19 06:07:40;;;;;;;3.20;3.10;;;20.60;99.90;;;21.14;89.05;101515.63;4860473;29;20054;-64
2022/05/19 06:10:10;;;;;;;2.30;2.20;;;20.80;99.90;;;21.26;88.76;101506.22;4860938;29;20472;-64
2022/05/19 06:12:39;;;;;;;2.60;2.50;;;20.90;99.90;;;21.26;88.35;101517.00;4860337;29;20457;-64
2022/05/19 06:15:09;;;;;;;2.67;2.58;;;20.90;99.90;;;21.41;88.00;101511.00;4874719;29;20080;-65
2022/05/19 06:17:40;;;;;;;2.78;2.67;;;21.10;99.90;;;21.53;88.08;101514.13;4860269;29;20489;-67
2022/05/19 06:20:10;;;;;;;;;;;21.10;99.90;;;21.60;88.32;101504.00;4861280;29;20118;-63
2022/05/19 06:22:40;;;;;;;2.72;2.63;;;21.30;99.90;;;21.72;88.08;101506.19;4860524;29;20015;-64
2022/05/19 06:25:09;;;;;;;2.92;2.83;;;21.40;99.90;;;21.80;87.60;101512.16;4862416;29;20082;-64
2022/05/19 06:27:38;;;;;;;3.08;2.97;;;21.50;99.90;;;21.72;86.74;101506.19;4863509;29;20147;-64
2022/05/19 06:30:08;;;;;;;2.80;2.70;;;21.50;99.90;;;21.87;86.34;101516.41;4863553;29;20050;-65
2022/05/19 06:32:38;;;;;;;2.85;2.75;;;21.50;99.90;;;21.82;86.28;101523.75;4862861;29;20057;-64
2022/05/19 06:35:08;;;;;;;2.45;2.35;;;21.50;99.90;;;21.59;87.01;101515.69;4863546;29;20097;-64
2022/05/19 06:37:37;;;;;;;3.03;2.92;;;21.30;99.90;;;21.83;87.66;101520.16;4863278;29;20045;-64
2022/05/19 06:40:07;;;;;;;2.67;2.58;;;21.50;99.90;;;22.00;88.17;101516.75;4863711;29;20125;-63
2022/05/19 06:42:37;;;;;;;2.60;2.50;;;21.60;99.90;;;22.16;88.41;101512.50;4863884;29;20053;-62
2022/05/19 06:45:08;;;;;;;2.50;2.40;;;21.80;99.90;;;22.21;88.44;101500.56;4877930;29;20053;-64
2022/05/19 06:47:38;;;;;;;2.65;2.55;;;22.00;99.90;;;22.50;88.20;101538.88;4863804;29;20059;-63
2022/05/19 06:50:09;;;;;;;2.60;2.50;;;22.10;99.90;;;22.62;87.67;101541.97;4878013;29;20081;-64
2022/05/19 06:52:45;;;;;;;2.60;2.50;;;22.30;99.90;;;22.76;87.29;101549.47;4863460;29;20049;-67
2022/05/19 06:55:16;;;;;;;2.38;2.28;;;22.40;99.90;;;22.82;86.99;101539.28;4863360;29;20464;-64
2022/05/19 06:57:44;;;;;;;2.85;2.75;;;22.50;99.90;;;22.94;86.35;101540.53;4863085;29;20488;-65
2022/05/19 07:00:17;;;;;;;2.63;2.53;;;22.60;99.90;;;23.03;85.35;101549.13;4863268;29;20128;-67
2022/05/19 07:02:52;;;;;;;2.70;2.60;;;22.70;99.90;;;23.00;83.98;101542.97;4863039;29;20041;-68
2022/05/19 07:05:24;;;;;;;2.60;2.50;;;22.80;99.90;;;22.93;83.44;101545.09;4862916;29;20407;-64
2022/05/19 07:07:52;;;;;;;2.63;2.50;;;22.80;99.90;;;22.74;82.99;101551.34;4862793;29;20058;-66
2022/05/19 07:10:23;;;;;;;2.95;2.85;;;22.60;99.90;;;22.85;83.18;101536.44;4862838;29;20128;-67
2022/05/19 07:12:52;;;;;;;4.10;3.85;;;22.60;99.90;;;22.74;83.91;101541.44;4862886;29;20057;-66
2022/05/19 07:15:21;;;;;;;2.60;2.50;;;22.50;99.90;;;22.50;84.49;101533.50;4863084;29;20046;-66
2022/05/19 07:17:51;;;;;;;2.65;2.55;;;22.30;99.90;;;22.61;84.23;101526.72;4862660;29;20121;-65
2022/05/19 07:23:08;;;;;;;3.30;3.10;;;22.30;99.90;;;22.09;85.16;101549.59;4862954;29;20420;-65
2022/05/19 07:25:37;;;;;;;3.00;2.90;;;21.90;99.90;;;21.92;87.10;101560.19;4863009;29;20057;-63
2022/05/19 07:28:06;;;;;;;2.53;2.42;;;21.60;99.90;;;22.33;86.77;101561.19;4862459;29;20124;-61
2022/05/19 07:30:35;;;;;;;2.58;2.47;;;21.90;99.90;;;22.51;86.23;101568.50;4862718;29;20495;-60
2022/05/19 07:33:08;;;;;;;2.20;2.10;;;22.10;99.90;;;22.65;85.71;101566.09;4862773;29;20052;-61
2022/05/19 07:35:36;;;;;;;2.47;2.38;;;22.40;99.90;;;22.86;84.56;101592.16;4861620;29;20411;-61
2022/05/19 07:38:05;;;;;;;2.40;2.30;;;22.50;99.90;;;22.97;83.74;101595.28;4862538;29;20045;-61
2022/05/19 07:40:34;;;;;;;2.60;2.50;;;22.60;99.90;;;22.81;83.86;101574.41;4863066;29;20049;-60
2022/05/19 07:45:45;;;;;;;3.78;3.58;;;22.40;99.90;;;22.33;86.60;101578.25;4860440;29;20049;-60
2022/05/19 07:48:15;;;;;;;3.53;3.33;;;22.10;99.90;;;22.24;86.34;101565.13;4862601;29;20056;-63
2022/05/19 07:50:43;;;;;;;4.23;3.97;;;22.00;99.90;;;22.37;86.56;101562.81;4862316;29;20090;-61
2022/05/19 07:53:11;;;;;;;4.32;3.90;;;22.00;99.90;;;22.29;86.94;101568.53;4862069;29;20294;-61
2022/05/19 07:55:40;;;;;;;2.97;2.88;;;22.00;99.90;;;22.51;87.09;101568.50;4861955;29;20041;-60
2022/05/19 07:58:08;;;;;;;3.45;3.25;;;22.10;99.90;;;22.49;87.51;101561.41;4861920;29;20076;-61
2022/05/19 08:00:37;;;;;;;2.65;2.55;;;22.20;99.90;;;22.61;87.99;101572.56;4862142;29;20049;-62
2022/05/19 08:03:06;;;;;;;2.75;2.65;;;22.30;99.90;;;22.86;88.43;101565.16;4861954;29;20069;-61
2022/05/19 08:05:36;;;;;;;2.40;2.30;;;22.50;99.90;;;23.05;87.76;101565.25;4862103;29;20060;-61
2022/05/19 08:08:05;;;;;;;3.03;2.92;;;22.70;99.90;;;23.18;87.49;101563.75;4862039;29;20088;-61
2022/05/19 08:10:34;;;;;;;2.55;2.45;;;22.90;99.90;;;23.17;86.09;101553.91;4862195;29;20102;-61
2022/05/19 08:15:54;;;;;;;5.03;4.63;;;23.00;99.90;;;22.93;83.47;101565.78;4861738;29;20045;-61
2022/05/19 08:18:25;;;;;;;2.70;2.60;;;22.80;99.90;;;23.33;84.56;101565.78;4861541;29;20050;-61
2022/05/19 08:20:58;;;;;;;2.45;2.35;;;23.00;99.90;;;23.51;83.00;101570.34;4861975;29;20041;-61
2022/05/19 08:23:32;;;;;;;14.13;3.53;;;23.20;99.90;;;23.50;79.60;101563.16;4862019;29;20117;-61
2022/05/19 08:26:01;;;;;;;3.58;3.38;;;23.30;99.90;;;23.26;81.15;101562.47;4861652;29;20076;-61
2022/05/19 08:28:33;;;;;;;2.60;2.50;;;23.00;99.90;;;23.69;81.95;101571.31;4861683;29;20080;-61
2022/05/19 08:31:07;;;;;;;2.30;2.20;;;23.30;99.90;;;23.92;81.12;101569.25;4861673;29;20082;-61
2022/05/19 08:33:37;;;;;;;2.30;2.20;;;23.60;99.90;;;24.08;79.62;101572.09;4861492;29;20041;-61
2022/05/19 08:36:08;;;;;;;2.60;2.50;;;23.80;99.90;;;24.24;78.39;101567.69;4861929;29;20077;-60
2022/05/19 08:38:38;;;;;;;3.30;3.05;;;24.00;99.90;;;23.59;77.88;101554.66;4861377;29;20411;-62
2022/05/19 08:41:10;;;;;;;4.25;3.95;;;23.50;99.90;;;23.40;79.21;101556.47;4861238;29;20049;-64
2022/05/19 08:43:46;;;;;;;6.03;4.70;;;23.20;99.90;;;23.00;79.90;101546.56;4861819;29;20053;-60
2022/05/19 08:46:22;;;;;;;3.50;3.30;;;22.80;99.90;;;23.18;80.99;101556.53;4861272;29;20511;-62
2022/05/19 08:48:55;;;;;;;3.80;3.50;;;22.80;99.90;;;23.29;80.72;101534.44;4861054;29;20506;-61
2022/05/19 08:51:30;;;;;;;3.00;2.85;;;23.00;99.90;;;23.32;80.53;101553.25;4861168;29;20488;-63
2022/05/19 08:54:07;;;;;;;3.33;3.13;;;23.00;99.90;;;23.77;81.67;101561.88;4861512;29;20092;-61
2022/05/19 08:56:41;;;;;;;4.30;4.00;;;23.30;99.90;;;23.45;80.47;101564.34;4861056;29;20120;-61
2022/05/19 08:59:29;;;;;;;4.35;3.97;;;23.20;99.90;;;23.25;80.57;101573.31;4861399;29;20045;-63
2022/05/19 09:02:05;;;;;;;4.15;3.88;;;23.00;99.90;;;23.06;80.76;101580.50;4861748;29;20116;-63
2022/05/19 09:04:47;;;;;;;3.00;2.90;;;22.80;99.90;;;23.35;81.78;101577.38;4861047;29;20488;-62
2022/05/19 09:10:44;;;;;;;4.80;4.30;;;23.20;99.90;;;23.45;81.40;101573.31;4860876;29;20053;-64
2022/05/19 09:13:25;;;;;;;4.93;4.43;;;23.10;99.90;;;23.41;80.75;101573.53;4860975;29;20080;-63
2022/05/19 09:15:55;;;;;;;4.28;3.80;;;23.20;99.90;;;23.61;80.14;101577.06;4861088;29;20049;-63
2022/05/19 09:18:33;;;;;;;3.58;3.38;;;23.30;99.90;;;23.34;81.57;101583.75;4860649;29;20073;-63
2022/05/19 09:21:03;;;;;;;4.03;3.65;;;23.00;99.90;;;23.34;82.79;101548.66;4861096;29;20559;-66
2022/05/19 09:23:35;;;;;;;3.28;3.13;;;23.10;99.90;;;23.45;80.05;101557.13;4861028;29;20060;-65
2022/05/19 09:26:41;;;;;;;3.05;2.95;;;23.10;99.90;;;23.58;80.37;101570.91;4860816;29;20564;-64
2022/05/19 09:29:15;;;;;;;4.38;3.97;;;23.20;99.90;;;23.46;79.24;101572.34;4860953;29;20056;-63
2022/05/19 09:31:48;;;;;;;3.15;2.97;;;23.20;99.90;;;23.66;79.24;101574.13;4860964;29;20053;-63
2022/05/19 09:34:18;;;;;;;4.38;4.07;;;23.30;99.90;;;23.76;77.28;101581.75;4861246;29;20077;-63
2022/05/19 09:37:08;;;;;;;2.40;2.30;;;23.40;99.90;;;23.98;76.39;101576.19;4860571;29;20518;-63
2022/05/19 09:39:53;;;;;;;2.35;2.25;;;23.60;99.90;;;24.21;75.61;101569.69;4860867;29;20100;-63
2022/05/19 09:42:24;;;;;;;3.28;2.80;;;23.80;99.90;;;24.31;75.34;101571.88;4860959;29;20046;-63
2022/05/19 09:44:57;;;;;;;2.60;2.50;;;23.90;99.90;;;24.39;75.88;101534.47;4860609;29;20102;-63
2022/05/19 09:47:32;;;;;;;3.28;3.15;;;24.10;99.90;;;24.32;72.85;101546.56;4860737;29;20105;-64
2022/05/19 09:50:09;;;;;;;3.63;3.40;;;24.10;99.90;;;24.64;74.83;101561.16;4860920;29;20467;-63
2022/05/19 09:52:42;;;;;;;2.53;2.42;;;24.20;99.90;;;24.64;72.40;101572.84;4860784;29;20053;-63
2022/05/19 09:55:16;;;;;;;2.40;2.30;;;24.30;99.90;;;24.30;71.10;101572.81;4860818;29;20056;-63
2022/05/19 09:57:47;;;;;;;4.10;3.67;;;24.00;99.90;;;24.48;70.59;101571.88;4860490;29;20053;-63
2022/05/19 10:00:26;;;;;;;2.63;2.53;;;24.10;99.90;;;24.47;70.62;101574.66;4862906;29;20457;-63
2022/05/19 10:02:58;;;;;;;2.35;2.25;;;24.10;99.90;;;24.75;70.59;101586.75;4863870;29;20049;-63
2022/05/19 10:05:49;;;;;;;2.03;1.92;;;24.40;99.90;;;25.02;70.27;101558.22;4864122;29;20052;-63
2022/05/19 10:08:21;;;;;;;2.13;2.03;;;24.70;99.90;;;25.31;69.88;101566.63;4863983;29;20050;-63
2022/05/19 10:11:02;;;;;;;2.20;2.10;;;25.00;99.90;;;25.49;68.42;101560.22;4864196;29;20177;-63
2022/05/19 10:13:38;;;;;;;1.90;1.80;;;25.20;99.90;;;25.63;67.14;101550.38;4863886;29;20074;-63
2022/05/19 10:16:18;;;;;;;3.42;3.25;;;25.40;99.90;;;25.81;66.15;101554.75;4864235;29;20053;-64
2022/05/19 10:19:12;;;;;;;3.50;2.35;;;25.60;99.90;;;25.90;65.27;101572.31;4862780;29;20050;-64
2022/05/19 10:22:15;;;;;;;2.15;2.05;;;25.60;99.90;;;25.94;64.93;101569.38;4863693;29;20048;-63
2022/05/19 10:25:17;;;;;;;1.90;1.80;;;25.70;99.90;;;25.96;64.70;101596.41;4855570;29;20068;-63
2022/05/19 10:31:04;;;;;;;1.60;1.60;;;25.60;99.90;;;25.78;64.62;101619.97;4863634;29;20468;-63
2022/05/19 10:34:02;;;;;;;2.70;2.60;;;25.50;99.90;;;25.67;65.15;101616.13;4863919;29;20045;-63
2022/05/19 10:36:39;;;;;;;;;;;25.50;99.90;;;25.45;64.37;101639.94;4864276;29;20114;-63
2022/05/19 10:39:29;;;;;;;2.08;1.98;;;25.30;99.90;;;25.49;64.94;101693.00;4863634;29;20424;-70
2022/05/19 10:42:11;;;;;;;3.70;3.50;;;25.20;99.90;;;25.27;65.98;101723.03;4863659;29;20049;-70
2022/05/19 10:45:07;;;;;;;2.10;2.00;;;25.00;99.90;;;25.12;68.25;101736.47;4863763;29;20080;-70
2022/05/19 10:47:59;;;;;;;2.40;2.30;;;24.80;99.90;;;24.98;70.80;101738.06;4863906;29;20136;-69
2022/05/19 10:50:31;;;;;;;2.22;2.13;;;24.60;99.90;;;24.89;72.25;101745.75;4863563;29;20455;-69
2022/05/19 10:53:30;;;;;;;3.03;2.92;;;24.50;99.90;;;24.75;73.71;101749.16;4862088;29;20049;-68